Time;durP1;ratioP1;P1;durP2;ratioP2;P2;SDS_P1;SDS_P2;PMS_P1;PMS_P2;Temp;Humidity;BMP_temperature;BMP_pressure;BME280_temperature;BME280_humidity;BME280_pressure;Samples;Min_cycle;Max_cycle;Signal;HPM_P1;HPM_P2
2021/09/06 00:00:50;;;;;;;12.65;9.93;;;;;;;-142.25;100.00;58004.16;5055462;28;20072;-61
2021/09/06 00:03:15;;;;;;;14.25;9.75;;;;;;;-142.25;100.00;58004.16;5037084;28;20040;-61
2021/09/06 00:05:40;;;;;;;14.82;9.27;;;;;;;-142.25;100.00;58004.16;5053488;28;20044;-59
2021/09/06 00:08:06;;;;;;;12.18;9.02;;;;;;;-142.25;100.00;58004.16;5053140;28;20029;-62
2021/09/06 00:10:43;;;;;;;14.30;10.00;;;;;;;-142.25;100.00;58004.16;5053811;28;20569;-63
2021/09/06 00:13:12;;;;;;;13.57;10.30;;;;;;;-142.25;100.00;58004.16;5053433;28;20324;-60
2021/09/06 00:15:38;;;;;;;15.82;10.40;;;;;;;-142.25;100.00;58004.16;5054785;28;20140;-63
2021/09/06 00:18:05;;;;;;;12.45;10.10;;;;;;;-142.25;100.00;58004.16;5054307;28;20041;-62
2021/09/06 00:20:33;;;;;;;14.32;10.45;;;;;;;-142.25;100.00;58004.16;5053229;28;20032;-62
2021/09/06 00:22:58;;;;;;;12.60;9.63;;;;;;;-142.25;100.00;58004.16;5037622;28;20450;-61
2021/09/06 00:25:24;;;;;;;13.35;9.75;;;;;;;-142.25;100.00;58004.16;5052391;28;20415;-62
2021/09/06 00:27:50;;;;;;;14.27;10.75;;;;;;;-142.25;100.00;58004.16;5053838;28;20086;-63
2021/09/06 00:30:15;;;;;;;14.13;10.52;;;;;;;-142.25;100.00;58004.16;5052613;28;20043;-62
2021/09/06 00:32:41;;;;;;;17.17;11.45;;;;;;;-142.25;100.00;58004.16;5053589;28;20059;-62
2021/09/06 00:35:07;;;;;;;13.65;9.73;;;;;;;-142.25;100.00;58004.16;5053939;28;20071;-60
2021/09/06 00:37:32;;;;;;;15.13;9.77;;;;;;;-142.25;100.00;58004.16;5037235;28;20044;-62
2021/09/06 00:39:57;;;;;;;14.18;9.55;;;;;;;-142.25;100.00;58004.16;5053181;28;20035;-62
2021/09/06 00:42:23;;;;;;;16.48;9.63;;;;;;;-142.25;100.00;58004.16;5052984;28;20033;-61
2021/09/06 00:44:49;;;;;;;13.00;9.27;;;;;;;-142.25;100.00;58004.16;5052543;28;20485;-62
2021/09/06 00:47:16;;;;;;;12.15;9.13;;;;;;;-142.25;100.00;58004.16;5053401;28;20132;-62
2021/09/06 00:49:41;;;;;;;12.05;9.48;;;;;;;-142.25;100.00;58004.16;5055007;28;20028;-62
2021/09/06 00:52:07;;;;;;;13.05;10.15;;;;;;;-142.25;100.00;58004.16;5052257;28;20044;-62
2021/09/06 00:54:32;;;;;;;12.82;10.25;;;;;;;-142.25;100.00;58004.16;5053009;28;20025;-60
2021/09/06 00:56:58;;;;;;;13.48;8.55;;;;;;;-142.25;100.00;58004.16;5053824;28;20548;-59
2021/09/06 00:59:23;;;;;;;13.88;9.25;;;;;;;-142.25;100.00;58004.16;5054310;28;20041;-61
2021/09/06 01:01:49;;;;;;;14.55;9.82;;;;;;;-142.25;100.00;58004.16;5052449;28;20029;-60
2021/09/06 01:04:15;;;;;;;17.27;10.50;;;;;;;-142.25;100.00;58004.16;5054083;28;20056;-59
2021/09/06 01:06:40;;;;;;;13.07;9.73;;;;;;;-142.25;100.00;58004.16;5052593;28;20360;-60
2021/09/06 01:09:06;;;;;;;13.68;9.20;;;;;;;-142.25;100.00;58004.16;5053885;28;20040;-62
2021/09/06 01:11:31;;;;;;;12.18;9.27;;;;;;;-142.25;100.00;58004.16;5052581;28;20414;-61
2021/09/06 01:13:57;;;;;;;13.18;10.10;;;;;;;-142.25;100.00;58004.16;5052678;28;20036;-58
2021/09/06 01:16:23;;;;;;;13.27;9.40;;;;;;;-142.25;100.00;58004.16;5051402;28;20025;-61
2021/09/06 01:18:49;;;;;;;15.02;9.63;;;;;;;-142.25;100.00;58004.16;5051805;28;20029;-60
2021/09/06 01:21:15;;;;;;;12.55;9.18;;;;;;;-142.25;100.00;58004.16;5051623;28;20032;-60
2021/09/06 01:23:41;;;;;;;12.43;8.77;;;;;;;-142.25;100.00;58004.16;5052926;28;20040;-62
2021/09/06 01:26:07;;;;;;;12.85;9.82;;;;;;;-142.25;100.00;58004.16;5053509;28;20032;-63
2021/09/06 01:28:32;;;;;;;13.10;8.68;;;;;;;-142.25;100.00;58004.16;5052221;28;20706;-63
2021/09/06 01:30:58;;;;;;;15.55;10.20;;;;;;;-142.25;100.00;58004.16;5051426;28;20429;-61
2021/09/06 01:33:23;;;;;;;11.57;9.43;;;;;;;-142.25;100.00;58004.16;5052881;28;20089;-60
2021/09/06 01:35:49;;;;;;;14.05;10.25;;;;;;;-142.25;100.00;58004.16;5051716;28;20024;-59
2021/09/06 01:38:14;;;;;;;13.07;8.63;;;;;;;-142.25;100.00;58004.16;5053640;28;20313;-57
2021/09/06 01:40:40;;;;;;;13.55;9.30;;;;;;;-142.25;100.00;58004.16;5053533;28;20392;-61
2021/09/06 01:43:05;;;;;;;13.05;8.77;;;;;;;-142.25;100.00;58004.16;5053644;28;20047;-62
2021/09/06 01:45:31;;;;;;;12.43;9.55;;;;;;;-142.25;100.00;58004.16;5051437;28;20032;-60
2021/09/06 01:47:56;;;;;;;12.07;9.20;;;;;;;-142.25;100.00;58004.16;5052131;28;20048;-60
2021/09/06 01:50:24;;;;;;;13.32;9.68;;;;;;;-142.25;100.00;58004.16;5051657;28;20043;-61
2021/09/06 01:52:50;;;;;;;12.95;9.10;;;;;;;-142.25;100.00;58004.16;5043759;28;20029;-57
2021/09/06 01:55:15;;;;;;;14.18;10.27;;;;;;;-142.25;100.00;58004.16;5051850;28;20087;-61
2021/09/06 01:57:41;;;;;;;15.35;10.20;;;;;;;-142.25;100.00;58004.16;5052440;28;20038;-59
2021/09/06 02:00:07;;;;;;;16.45;9.35;;;;;;;-142.25;100.00;58004.16;5052498;28;20421;-61
2021/09/06 02:02:32;;;;;;;12.45;9.05;;;;;;;-142.25;100.00;58004.16;5051487;28;20086;-63
2021/09/06 02:04:58;;;;;;;14.15;11.43;;;;;;;-142.25;100.00;58004.16;5055929;28;20076;-64
2021/09/06 02:07:23;;;;;;;11.45;8.70;;;;;;;-142.25;100.00;58004.16;5067713;28;20052;-64
2021/09/06 02:09:49;;;;;;;13.50;9.40;;;;;;;-142.25;100.00;58004.16;5052991;28;20087;-63
2021/09/06 02:12:14;;;;;;;14.25;10.45;;;;;;;-142.25;100.00;58004.16;5050304;28;20028;-59
2021/09/06 02:14:40;;;;;;;13.27;9.55;;;;;;;-142.25;100.00;58004.16;5050704;28;20071;-60
2021/09/06 02:17:05;;;;;;;12.35;9.23;;;;;;;-142.25;100.00;58004.16;5054894;28;20528;-62
2021/09/06 02:19:31;;;;;;;15.38;9.63;;;;;;;-142.25;100.00;58004.16;5051052;28;20059;-62
2021/09/06 02:21:56;;;;;;;13.65;9.45;;;;;;;-142.25;100.00;58004.16;5052871;28;20028;-62
2021/09/06 02:24:23;;;;;;;12.40;9.38;;;;;;;-142.25;100.00;58004.16;5053760;28;20074;-62
2021/09/06 02:26:49;;;;;;;15.18;8.98;;;;;;;-142.25;100.00;58004.16;5052885;28;20024;-63
2021/09/06 02:29:14;;;;;;;14.25;9.10;;;;;;;-142.25;100.00;58004.16;5051304;28;20033;-62
2021/09/06 02:31:40;;;;;;;15.80;9.98;;;;;;;-142.25;100.00;58004.16;5053774;28;20131;-60
2021/09/06 02:34:06;;;;;;;13.13;9.43;;;;;;;-142.25;100.00;58004.16;5070940;28;20499;-58
2021/09/06 02:36:31;;;;;;;18.08;9.85;;;;;;;-142.25;100.00;58004.16;5056846;28;20029;-59
2021/09/06 02:38:57;;;;;;;13.55;10.38;;;;;;;-142.25;100.00;58004.16;5055591;28;20496;-61
2021/09/06 02:41:22;;;;;;;13.88;9.10;;;;;;;-142.25;100.00;58004.16;5055789;28;20094;-61
2021/09/06 02:43:48;;;;;;;13.07;8.93;;;;;;;-142.25;100.00;58004.16;5056223;28;20035;-61
2021/09/06 02:46:13;;;;;;;12.80;9.07;;;;;;;-142.25;100.00;58004.16;5056906;28;20044;-60
2021/09/06 02:48:39;;;;;;;16.15;10.30;;;;;;;-142.25;100.00;58004.16;5054899;28;20443;-59
2021/09/06 02:51:04;;;;;;;12.95;9.45;;;;;;;-142.25;100.00;58004.16;5055700;28;20094;-63
2021/09/06 02:53:29;;;;;;;17.85;10.88;;;;;;;-142.25;100.00;58004.16;5056767;28;20037;-62
2021/09/06 02:55:55;;;;;;;14.70;10.20;;;;;;;-142.25;100.00;58004.16;5038430;28;20116;-61
2021/09/06 02:58:20;;;;;;;12.23;9.05;;;;;;;-142.25;100.00;58004.16;5056024;28;20031;-61
2021/09/06 03:00:46;;;;;;;13.57;9.88;;;;;;;-142.25;100.00;58004.16;5055582;28;20056;-61
2021/09/06 03:03:11;;;;;;;16.52;9.88;;;;;;;-142.25;100.00;58004.16;5056444;28;20484;-59
2021/09/06 03:05:37;;;;;;;14.63;9.32;;;;;;;-142.25;100.00;58004.16;5054657;28;20557;-59
2021/09/06 03:08:02;;;;;;;15.60;9.65;;;;;;;-142.25;100.00;58004.16;5057648;28;20035;-59
2021/09/06 03:10:28;;;;;;;13.43;9.53;;;;;;;-142.25;100.00;58004.16;5070116;28;20032;-60
2021/09/06 03:12:55;;;;;;;15.43;9.63;;;;;;;-142.25;100.00;58004.16;5056214;28;20527;-61
2021/09/06 03:15:20;;;;;;;14.48;9.23;;;;;;;-142.25;100.00;58004.16;5054280;28;20036;-57
2021/09/06 03:17:46;;;;;;;16.70;9.75;;;;;;;-142.25;100.00;58004.16;5057897;28;20040;-62
2021/09/06 03:20:11;;;;;;;16.50;10.13;;;;;;;-142.25;100.00;58004.16;5053869;28;20043;-59
2021/09/06 03:22:37;;;;;;;16.00;10.13;;;;;;;-142.25;100.00;58004.16;5055004;28;20031;-60
2021/09/06 03:25:03;;;;;;;15.95;9.88;;;;;;;-142.25;100.00;58004.16;5053318;28;20041;-60
2021/09/06 03:27:30;;;;;;;13.73;9.73;;;;;;;-142.25;100.00;58004.16;5056750;28;20025;-61
2021/09/06 03:29:55;;;;;;;16.08;9.95;;;;;;;-142.25;100.00;58004.16;5056356;28;20060;-63
2021/09/06 03:32:20;;;;;;;14.90;9.38;;;;;;;-142.25;100.00;58004.16;5054723;28;20111;-61
2021/09/06 03:34:46;;;;;;;16.70;11.80;;;;;;;-142.25;100.00;58004.16;5054796;28;20033;-64
2021/09/06 03:37:11;;;;;;;15.55;9.60;;;;;;;-142.25;100.00;58004.16;5052976;28;20032;-61
2021/09/06 03:39:37;;;;;;;13.70;9.90;;;;;;;-142.25;100.00;58004.16;5054904;28;20040;-60
2021/09/06 03:42:02;;;;;;;13.33;10.50;;;;;;;-142.25;100.00;58004.16;5054210;28;20055;-62
2021/09/06 03:44:28;;;;;;;17.40;9.75;;;;;;;-142.25;100.00;58004.16;5054215;28;20506;-64
2021/09/06 03:46:53;;;;;;;17.25;10.20;;;;;;;-142.25;100.00;58004.16;5054746;28;20037;-59
2021/09/06 03:49:18;;;;;;;14.23;9.77;;;;;;;-142.25;100.00;58004.16;5052775;28;20167;-62
2021/09/06 03:51:44;;;;;;;19.67;10.50;;;;;;;-142.25;100.00;58004.16;5055139;28;20044;-62
2021/09/06 03:54:09;;;;;;;16.57;10.03;;;;;;;-142.25;100.00;58004.16;5054059;28;20037;-60
2021/09/06 03:56:35;;;;;;;17.67;10.13;;;;;;;-142.25;100.00;58004.16;5054970;28;20040;-63
2021/09/06 03:59:00;;;;;;;13.00;10.07;;;;;;;-142.25;100.00;58004.16;5052771;28;20025;-63
2021/09/06 04:01:26;;;;;;;17.65;10.30;;;;;;;-142.25;100.00;58004.16;5052717;28;20579;-59
2021/09/06 04:03:51;;;;;;;15.63;10.00;;;;;;;-142.25;100.00;58004.16;5052013;28;20199;-63
2021/09/06 04:06:17;;;;;;;17.77;12.23;;;;;;;-142.25;100.00;58004.16;5054204;28;20086;-59
2021/09/06 04:08:42;;;;;;;15.00;10.10;;;;;;;-142.25;100.00;58004.16;5053520;28;20072;-59
2021/09/06 04:11:09;;;;;;;13.20;9.23;;;;;;;-142.25;100.00;58004.16;5048422;28;20431;-62
2021/09/06 04:13:34;;;;;;;12.80;9.93;;;;;;;-142.25;100.00;58004.16;5055122;28;20037;-60
2021/09/06 04:15:59;;;;;;;15.87;10.43;;;;;;;-142.25;100.00;58004.16;5053325;28;20043;-58
2021/09/06 04:18:26;;;;;;;15.23;8.98;;;;;;;-142.25;100.00;58004.16;5053850;28;20115;-59
2021/09/06 04:20:52;;;;;;;14.43;10.23;;;;;;;-142.25;100.00;58004.16;5061466;28;20620;-60
2021/09/06 04:23:18;;;;;;;13.07;9.63;;;;;;;-142.25;100.00;58004.16;5054771;28;20446;-59
2021/09/06 04:25:43;;;;;;;14.98;9.18;;;;;;;-142.25;100.00;58004.16;5052632;28;20044;-60
2021/09/06 04:28:09;;;;;;;15.65;9.90;;;;;;;-142.25;100.00;58004.16;5054096;28;20025;-59
2021/09/06 04:30:34;;;;;;;14.80;9.55;;;;;;;-142.25;100.00;58004.16;5052967;28;20124;-60
2021/09/06 04:33:00;;;;;;;14.97;9.80;;;;;;;-142.25;100.00;58004.16;5054118;28;20028;-60
2021/09/06 04:35:25;;;;;;;14.63;9.70;;;;;;;-142.25;100.00;58004.16;5054146;28;20032;-59
2021/09/06 04:37:51;;;;;;;20.13;11.32;;;;;;;-142.25;100.00;58004.16;5053516;28;20021;-57
2021/09/06 04:40:16;;;;;;;17.38;10.48;;;;;;;-142.25;100.00;58004.16;5054573;28;20587;-59
2021/09/06 04:42:41;;;;;;;16.73;11.85;;;;;;;-142.25;100.00;58004.16;5053387;28;20048;-58
2021/09/06 04:45:09;;;;;;;18.17;9.63;;;;;;;-142.25;100.00;58004.16;5052568;28;20040;-59
2021/09/06 04:47:34;;;;;;;13.10;8.82;;;;;;;-142.25;100.00;58004.16;5053004;28;20032;-60
2021/09/06 04:49:59;;;;;;;17.67;9.20;;;;;;;-142.25;100.00;58004.16;5053638;28;20090;-61
2021/09/06 04:52:25;;;;;;;16.02;9.52;;;;;;;-142.25;100.00;58004.16;5053360;28;20150;-63
2021/09/06 04:54:50;;;;;;;16.65;9.30;;;;;;;-142.25;100.00;58004.16;5054340;28;20036;-59
2021/09/06 04:57:16;;;;;;;15.17;10.30;;;;;;;-142.25;100.00;58004.16;5054050;28;20479;-58
2021/09/06 04:59:41;;;;;;;13.00;9.18;;;;;;;-142.25;100.00;58004.16;5053538;28;20021;-60
2021/09/06 05:02:06;;;;;;;12.45;9.45;;;;;;;-142.25;100.00;58004.16;5053530;28;20037;-62
2021/09/06 05:04:32;;;;;;;17.37;10.10;;;;;;;-142.25;100.00;58004.16;5054201;28;20153;-64
2021/09/06 05:06:57;;;;;;;13.43;8.82;;;;;;;-142.25;100.00;58004.16;5052353;28;20049;-59
2021/09/06 05:09:23;;;;;;;16.45;9.60;;;;;;;-142.25;100.00;58004.16;5057429;28;20029;-62
2021/09/06 05:11:48;;;;;;;15.98;9.45;;;;;;;-142.25;100.00;58004.16;5054797;28;20060;-62
2021/09/06 05:14:14;;;;;;;14.38;9.70;;;;;;;-142.25;100.00;58004.16;5054403;28;20028;-63
2021/09/06 05:16:39;;;;;;;12.25;9.15;;;;;;;-142.25;100.00;58004.16;5051872;28;20635;-63
2021/09/06 05:19:04;;;;;;;16.70;9.50;;;;;;;-142.25;100.00;58004.16;5055941;28;20029;-60
2021/09/06 05:21:30;;;;;;;18.73;9.63;;;;;;;-142.25;100.00;58004.16;5053630;28;20120;-64
2021/09/06 05:23:57;;;;;;;11.93;9.25;;;;;;;-142.25;100.00;58004.16;5052436;28;20033;-62
2021/09/06 05:26:23;;;;;;;15.65;9.48;;;;;;;-142.25;100.00;58004.16;5055195;28;20568;-60
2021/09/06 05:28:49;;;;;;;12.73;9.43;;;;;;;-142.25;100.00;58004.16;5054245;28;20108;-56
2021/09/06 05:31:14;;;;;;;15.25;9.98;;;;;;;-142.25;100.00;58004.16;5053549;28;20039;-62
2021/09/06 05:33:40;;;;;;;14.85;10.35;;;;;;;-142.25;100.00;58004.16;5057113;28;20033;-59
2021/09/06 05:36:06;;;;;;;14.27;9.32;;;;;;;-142.25;100.00;58004.16;5054267;28;20045;-58
2021/09/06 05:38:32;;;;;;;12.05;9.02;;;;;;;-142.25;100.00;58004.16;5053319;28;20504;-60
2021/09/06 05:40:58;;;;;;;14.25;8.90;;;;;;;-142.25;100.00;58004.16;5053439;28;20249;-60
2021/09/06 05:43:23;;;;;;;14.43;9.13;;;;;;;-142.25;100.00;58004.16;5047668;28;20028;-62
2021/09/06 05:45:48;;;;;;;18.52;10.30;;;;;;;-142.25;100.00;58004.16;5052071;28;20033;-60
2021/09/06 05:48:14;;;;;;;17.30;9.27;;;;;;;-142.25;100.00;58004.16;5050559;28;20033;-62
2021/09/06 05:50:39;;;;;;;13.73;8.32;;;;;;;-142.25;100.00;58004.16;5051349;28;20119;-60
2021/09/06 05:53:05;;;;;;;18.88;10.48;;;;;;;-142.25;100.00;58004.16;5051845;28;20032;-60
2021/09/06 05:55:30;;;;;;;11.88;8.40;;;;;;;-142.25;100.00;58004.16;5051671;28;20026;-58
2021/09/06 05:57:56;;;;;;;14.00;9.73;;;;;;;-142.25;100.00;58004.16;5050556;28;20028;-59
2021/09/06 06:00:21;;;;;;;13.15;8.75;;;;;;;-142.25;100.00;58004.16;5052306;28;20115;-61
2021/09/06 06:02:46;;;;;;;12.35;8.32;;;;;;;-142.25;100.00;58004.16;5050121;28;20373;-62
2021/09/06 06:05:12;;;;;;;10.98;8.25;;;;;;;-142.25;100.00;58004.16;5051411;28;20059;-60
2021/09/06 06:07:37;;;;;;;10.07;8.00;;;;;;;-142.25;100.00;58004.16;5052105;28;20083;-62
2021/09/06 06:10:04;;;;;;;13.00;8.70;;;;;;;-142.25;100.00;58004.16;5051294;28;20035;-61
2021/09/06 06:12:30;;;;;;;12.30;9.13;;;;;;;-142.25;100.00;58004.16;5053899;28;20434;-61
2021/09/06 06:14:57;;;;;;;10.43;8.05;;;;;;;-142.25;100.00;58004.16;5067441;28;20468;-58
2021/09/06 06:17:23;;;;;;;9.65;6.90;;;;;;;-142.25;100.00;58004.16;5053081;28;20028;-61
2021/09/06 06:19:49;;;;;;;9.70;6.30;;;;;;;-142.25;100.00;58004.16;5049649;28;20523;-59
2021/09/06 06:22:14;;;;;;;9.57;5.72;;;;;;;-142.25;100.00;58004.16;5051619;28;20032;-61
2021/09/06 06:24:40;;;;;;;8.27;6.75;;;;;;;-142.25;100.00;58004.16;5049916;28;20028;-62
2021/09/06 06:27:05;;;;;;;10.40;6.55;;;;;;;-142.25;100.00;58004.16;5053740;28;20024;-61
2021/09/06 06:29:30;;;;;;;10.88;6.55;;;;;;;-142.25;100.00;58004.16;5052287;28;20140;-60
2021/09/06 06:31:57;;;;;;;9.98;6.60;;;;;;;-142.25;100.00;58004.16;5051192;28;20549;-61
2021/09/06 06:34:23;;;;;;;11.57;6.38;;;;;;;-142.25;100.00;58004.16;5055083;28;20044;-61
2021/09/06 06:36:48;;;;;;;13.30;7.07;;;;;;;-142.25;100.00;58004.16;5059512;28;20033;-61
2021/09/06 06:39:13;;;;;;;8.90;6.38;;;;;;;-142.25;100.00;58004.16;5048946;28;20484;-59
2021/09/06 06:41:39;;;;;;;9.90;6.85;;;;;;;-142.25;100.00;58004.16;5049641;28;20076;-57
2021/09/06 06:44:05;;;;;;;10.45;6.72;;;;;;;-142.25;100.00;58004.16;5050540;28;20024;-61
2021/09/06 06:46:30;;;;;;;9.85;6.40;;;;;;;-142.25;100.00;58004.16;5050350;28;20069;-61
2021/09/06 06:48:56;;;;;;;7.70;5.88;;;;;;;-142.25;100.00;58004.16;5052035;28;20021;-62
2021/09/06 06:51:21;;;;;;;10.30;6.90;;;;;;;-142.25;100.00;58004.16;5048930;28;20094;-62
2021/09/06 06:53:47;;;;;;;9.18;7.03;;;;;;;-142.25;100.00;58004.16;5052909;28;20115;-62
2021/09/06 06:56:12;;;;;;;10.07;6.65;;;;;;;-142.25;100.00;58004.16;5051312;28;20072;-60
2021/09/06 06:58:38;;;;;;;7.95;6.57;;;;;;;-142.25;100.00;58004.16;5050701;28;20048;-62
2021/09/06 07:01:03;;;;;;;10.10;7.10;;;;;;;-142.25;100.00;58004.16;5050608;28;20043;-60
2021/09/06 07:03:29;;;;;;;11.85;8.13;;;;;;;-142.25;100.00;58004.16;5052555;28;20056;-62
2021/09/06 07:05:54;;;;;;;11.07;6.38;;;;;;;-142.25;100.00;58004.16;5051914;28;20489;-60
2021/09/06 07:08:20;;;;;;;11.70;7.32;;;;;;;-142.25;100.00;58004.16;5051189;28;20033;-59
2021/09/06 07:10:45;;;;;;;10.57;6.90;;;;;;;-142.25;100.00;58004.16;5051933;28;20135;-60
2021/09/06 07:13:11;;;;;;;11.93;7.05;;;;;;;-142.25;100.00;58004.16;5051640;28;20037;-58
2021/09/06 07:15:36;;;;;;;17.25;7.47;;;;;;;-142.25;100.00;58004.16;5050859;28;20028;-63
2021/09/06 07:18:04;;;;;;;8.88;6.65;;;;;;;-142.25;100.00;58004.16;5039728;28;20037;-62
2021/09/06 07:20:29;;;;;;;11.85;7.55;;;;;;;-142.25;100.00;58004.16;5055185;28;20419;-60
2021/09/06 07:22:55;;;;;;;10.82;7.25;;;;;;;-142.25;100.00;58004.16;5056553;28;20052;-61
2021/09/06 07:25:20;;;;;;;10.50;7.50;;;;;;;-142.25;100.00;58004.16;5055271;28;20520;-61
2021/09/06 07:27:46;;;;;;;9.20;7.25;;;;;;;-142.25;100.00;58004.16;5055718;28;20040;-60
2021/09/06 07:30:12;;;;;;;10.55;7.53;;;;;;;-142.25;100.00;58004.16;5056061;28;20479;-59
2021/09/06 07:32:38;;;;;;;9.90;8.52;;;;;;;-142.25;100.00;58004.16;5053804;28;20151;-60
2021/09/06 07:35:04;;;;;;;11.98;8.88;;;;;;;-142.25;100.00;58004.16;5057150;28;20115;-61
2021/09/06 07:37:30;;;;;;;12.15;8.40;;;;;;;-142.25;100.00;58004.16;5057053;28;20386;-64
2021/09/06 07:39:57;;;;;;;13.50;8.38;;;;;;;-142.25;100.00;58004.16;5054542;28;20584;-62
2021/09/06 07:42:23;;;;;;;15.15;9.40;;;;;;;-142.25;100.00;58004.16;5053061;28;20119;-63
2021/09/06 07:44:49;;;;;;;13.98;9.63;;;;;;;-142.25;100.00;58004.16;5055742;28;20037;-62
2021/09/06 07:47:14;;;;;;;16.73;9.55;;;;;;;-142.25;100.00;58004.16;5055559;28;20032;-59
2021/09/06 07:49:41;;;;;;;11.18;8.05;;;;;;;-142.25;100.00;58004.16;5053186;28;20036;-63
2021/09/06 07:52:07;;;;;;;14.77;9.43;;;;;;;-142.25;100.00;58004.16;5053642;28;20029;-61
2021/09/06 07:54:32;;;;;;;12.80;9.20;;;;;;;-142.25;100.00;58004.16;5055417;28;20539;-61
2021/09/06 07:56:58;;;;;;;15.45;10.07;;;;;;;-142.25;100.00;58004.16;5056250;28;20056;-63
2021/09/06 07:59:23;;;;;;;12.82;8.23;;;;;;;-142.25;100.00;58004.16;5056566;28;20033;-65
2021/09/06 08:01:49;;;;;;;11.73;8.07;;;;;;;-142.25;100.00;58004.16;5053527;28;20038;-68
2021/09/06 08:04:14;;;;;;;11.90;8.80;;;;;;;-142.25;100.00;58004.16;5054671;28;20415;-62
2021/09/06 08:06:41;;;;;;;14.50;9.77;;;;;;;-142.25;100.00;58004.16;5056801;28;21012;-61
2021/09/06 08:09:06;;;;;;;12.43;10.05;;;;;;;-142.25;100.00;58004.16;5056732;28;20036;-60
2021/09/06 08:11:32;;;;;;;11.68;8.88;;;;;;;-142.25;100.00;58004.16;5053688;28;20036;-62
2021/09/06 08:13:59;;;;;;;14.05;9.38;;;;;;;-142.25;100.00;58004.16;5054454;28;20141;-59
2021/09/06 08:16:25;;;;;;;15.68;9.77;;;;;;;-142.25;100.00;58004.16;5057505;28;20036;-61
2021/09/06 08:18:51;;;;;;;15.40;9.77;;;;;;;-142.25;100.00;58004.16;5059923;28;20033;-63
2021/09/06 08:21:17;;;;;;;14.68;10.50;;;;;;;-142.25;100.00;58004.16;5057770;28;20033;-63
2021/09/06 08:23:42;;;;;;;14.18;8.95;;;;;;;-142.25;100.00;58004.16;5056743;28;20473;-62
2021/09/06 08:26:08;;;;;;;11.32;8.32;;;;;;;-142.25;100.00;58004.16;5053920;28;20123;-62
2021/09/06 08:28:34;;;;;;;19.85;10.07;;;;;;;-142.25;100.00;58004.16;5035743;28;20116;-62
2021/09/06 08:30:59;;;;;;;17.73;10.07;;;;;;;-142.25;100.00;58004.16;5052267;28;20558;-59
2021/09/06 08:33:25;;;;;;;12.13;9.57;;;;;;;-142.25;100.00;58004.16;5052722;28;20040;-63
2021/09/06 08:35:51;;;;;;;14.98;8.88;;;;;;;-142.25;100.00;58004.16;5053868;28;20087;-59
2021/09/06 08:38:18;;;;;;;13.80;9.82;;;;;;;-142.25;100.00;58004.16;5038237;28;20029;-61
2021/09/06 08:40:43;;;;;;;12.95;9.15;;;;;;;-142.25;100.00;58004.16;5055179;28;20491;-63
2021/09/06 08:43:09;;;;;;;12.48;9.50;;;;;;;-142.25;100.00;58004.16;5054192;28;20033;-62
2021/09/06 08:45:36;;;;;;;12.48;9.82;;;;;;;-142.25;100.00;58004.16;5057610;28;20123;-61
2021/09/06 08:48:02;;;;;;;12.77;9.80;;;;;;;-142.25;100.00;58004.16;5060927;28;20702;-64
2021/09/06 08:50:28;;;;;;;15.10;10.10;;;;;;;-142.25;100.00;58004.16;5058051;28;20078;-62
2021/09/06 08:52:54;;;;;;;12.57;9.82;;;;;;;-142.25;100.00;58004.16;5054167;28;20040;-62
2021/09/06 08:55:20;;;;;;;13.35;9.70;;;;;;;-142.25;100.00;58004.16;5052672;28;20046;-63
2021/09/06 08:57:46;;;;;;;17.67;10.70;;;;;;;-142.25;100.00;58004.16;5051711;28;20756;-63
2021/09/06 09:00:12;;;;;;;13.00;9.85;;;;;;;-142.25;100.00;58004.16;5052331;28;20033;-63
2021/09/06 09:02:40;;;;;;;14.98;10.80;;;;;;;-142.25;100.00;58004.16;5052410;28;20035;-62
2021/09/06 09:05:10;;;;;;;15.30;11.50;;;;;;;-142.25;100.00;58004.16;5053371;28;20554;-61
2021/09/06 09:07:37;;;;;;;13.55;9.95;;;;;;;-142.25;100.00;58004.16;5052144;28;20508;-63
2021/09/06 09:10:07;;;;;;;16.08;10.48;;;;;;;-142.25;100.00;58004.16;5052272;28;20032;-62
2021/09/06 09:12:32;;;;;;;13.85;10.88;;;;;;;-142.25;100.00;58004.16;5053877;28;20120;-63
2021/09/06 09:14:59;;;;;;;16.90;10.48;;;;;;;-142.25;100.00;58004.16;5055254;28;20093;-62
2021/09/06 09:17:25;;;;;;;16.85;9.93;;;;;;;-142.25;100.00;58004.16;5055010;28;20040;-60
2021/09/06 09:19:51;;;;;;;13.85;9.63;;;;;;;-142.25;100.00;58004.16;5054285;28;20393;-59
2021/09/06 09:22:33;;;;;;;13.38;9.95;;;;;;;-142.25;100.00;58004.16;5052275;28;20041;-63
2021/09/06 09:25:04;;;;;;;11.77;8.43;;;;;;;-142.25;100.00;58004.16;5052032;28;20503;-63
2021/09/06 09:27:39;;;;;;;13.88;10.05;;;;;;;-142.25;100.00;58004.16;5055327;28;20039;-62
2021/09/06 09:30:10;;;;;;;10.73;8.80;;;;;;;-142.25;100.00;58004.16;5051589;28;20055;-61
2021/09/06 09:32:37;;;;;;;13.68;9.98;;;;;;;-142.25;100.00;58004.16;5055175;28;20041;-62
2021/09/06 09:35:04;;;;;;;13.85;10.02;;;;;;;-142.25;100.00;58004.16;5052874;28;20047;-60
2021/09/06 09:37:29;;;;;;;14.13;10.23;;;;;;;-142.25;100.00;58004.16;5053588;28;20029;-63
2021/09/06 09:39:56;;;;;;;11.95;9.82;;;;;;;-142.25;100.00;58004.16;5049724;28;20083;-61
2021/09/06 09:42:22;;;;;;;12.95;9.30;;;;;;;-142.25;100.00;58004.16;5053654;28;20043;-62
2021/09/06 09:44:50;;;;;;;16.23;10.15;;;;;;;-142.25;100.00;58004.16;5053780;28;20438;-63
2021/09/06 09:47:19;;;;;;;13.48;9.23;;;;;;;-142.25;100.00;58004.16;5056613;28;20044;-62
2021/09/06 09:49:51;;;;;;;12.07;8.90;;;;;;;-142.25;100.00;58004.16;5053757;28;20602;-60
2021/09/06 09:52:20;;;;;;;13.18;8.18;;;;;;;-142.25;100.00;58004.16;5051351;28;20044;-61
2021/09/06 09:54:48;;;;;;;13.32;8.90;;;;;;;-142.25;100.00;58004.16;5050604;28;20816;-60
2021/09/06 09:57:14;;;;;;;10.38;8.98;;;;;;;-142.25;100.00;58004.16;5054464;28;20323;-61
2021/09/06 09:59:41;;;;;;;13.32;9.02;;;;;;;-142.25;100.00;58004.16;5065882;28;20064;-63
2021/09/06 10:02:26;;;;;;;12.38;9.38;;;;;;;-142.25;100.00;58004.16;5054053;28;20031;-63
2021/09/06 10:04:54;;;;;;;14.77;9.13;;;;;;;-142.25;100.00;58004.16;5051476;28;20110;-62
2021/09/06 10:07:24;;;;;;;11.73;9.05;;;;;;;-142.25;100.00;58004.16;5055006;28;20072;-62
2021/09/06 10:09:50;;;;;;;10.40;8.85;;;;;;;-142.25;100.00;58004.16;5052283;28;20172;-63
2021/09/06 10:12:19;;;;;;;10.60;8.50;;;;;;;-142.25;100.00;58004.16;5053138;28;20114;-62
2021/09/06 10:14:57;;;;;;;16.75;9.05;;;;;;;-142.25;100.00;58004.16;5052830;28;20040;-64
2021/09/06 10:17:40;;;;;;;11.65;8.45;;;;;;;-142.25;100.00;58004.16;5050774;28;20028;-62
2021/09/06 10:20:12;;;;;;;11.40;8.88;;;;;;;-142.25;100.00;58004.16;5051316;28;20074;-62
2021/09/06 10:22:39;;;;;;;14.73;10.57;;;;;;;-142.25;100.00;58004.16;5054059;28;20082;-62
2021/09/06 10:25:09;;;;;;;19.77;11.63;;;;;;;-142.25;100.00;58004.16;5053141;28;20051;-61
2021/09/06 10:27:36;;;;;;;10.27;7.43;;;;;;;-142.25;100.00;58004.16;5057282;28;20072;-63
2021/09/06 10:30:07;;;;;;;10.43;8.07;;;;;;;-142.25;100.00;58004.16;5055544;28;20032;-62
2021/09/06 10:32:34;;;;;;;11.80;8.20;;;;;;;-142.25;100.00;58004.16;5055777;28;20072;-61
2021/09/06 10:35:09;;;;;;;7.65;6.85;;;;;;;-142.25;100.00;58004.16;5053717;28;20129;-62
2021/09/06 10:37:35;;;;;;;;;;;;;;;-142.25;100.00;58004.16;5052270;28;20067;-62
2021/09/06 10:40:04;;;;;;;10.07;7.40;;;;;;;-142.25;100.00;58004.16;5052378;28;20452;-62
2021/09/06 10:42:32;;;;;;;11.65;7.25;;;;;;;-142.25;100.00;58004.16;5049399;28;20037;-64
2021/09/06 10:44:59;;;;;;;11.52;8.20;;;;;;;-142.25;100.00;58004.16;5051526;28;20044;-62
2021/09/06 10:47:25;;;;;;;13.88;7.68;;;;;;;-142.25;100.00;58004.16;5050129;28;20048;-63
2021/09/06 10:49:51;;;;;;;11.48;7.25;;;;;;;-142.25;100.00;58004.16;5054077;28;20374;-61
2021/09/06 10:52:17;;;;;;;13.55;7.95;;;;;;;-142.25;100.00;58004.16;5052277;28;20471;-61
2021/09/06 10:54:42;;;;;;;9.13;7.38;;;;;;;-142.25;100.00;58004.16;5057759;28;20025;-61